createdAt,value
2022-08-03T00:01:20.254Z,25.59
2022-08-03T00:02:52.077Z,25.58
2022-08-03T00:04:33.634Z,25.55
2022-08-03T00:06:06.321Z,25.50
2022-08-03T00:07:38.709Z,25.48
2022-08-03T00:09:11.225Z,25.43
2022-08-03T00:10:43.074Z,25.40
2022-08-03T00:12:15.038Z,25.36
2022-08-03T00:13:47.167Z,25.32
2022-08-03T00:15:21.531Z,25.28
2022-08-03T00:16:55.094Z,25.25
2022-08-03T00:18:26.870Z,25.24
2022-08-03T00:19:58.569Z,25.25
2022-08-03T00:21:30.357Z,25.23
2022-08-03T00:23:02.176Z,25.21
2022-08-03T00:24:36.583Z,25.16
2022-08-03T00:26:08.299Z,25.13
2022-08-03T00:27:40.073Z,25.10
2022-08-03T00:29:11.782Z,25.06
2022-08-03T00:30:43.522Z,25.04
2022-08-03T00:32:17.976Z,25.02
2022-08-03T00:33:59.512Z,24.98
2022-08-03T00:35:50.270Z,24.95
2022-08-03T00:37:22.977Z,24.90
2022-08-03T00:39:12.783Z,24.85
2022-08-03T00:40:44.538Z,24.84
2022-08-03T00:42:16.567Z,24.80
2022-08-03T00:43:48.633Z,24.79
2022-08-03T00:45:24.236Z,24.76
2022-08-03T00:46:55.947Z,24.74
2022-08-03T00:48:33.114Z,24.71
2022-08-03T00:50:06.525Z,24.68
2022-08-03T00:51:38.546Z,24.66
2022-08-03T00:53:13.426Z,24.65
2022-08-03T00:54:45.213Z,24.62
2022-08-03T00:56:18.155Z,24.59
2022-08-03T00:57:50.501Z,24.57
2022-08-03T00:59:22.837Z,24.55
2022-08-03T01:00:54.749Z,24.52
2022-08-03T01:02:27.073Z,24.50
2022-08-03T01:04:00.249Z,24.50
2022-08-03T01:05:40.209Z,24.48
2022-08-03T01:07:17.808Z,24.47
2022-08-03T01:08:58.509Z,24.45
2022-08-03T01:10:39.757Z,24.44
2022-08-03T01:12:18.534Z,24.42
2022-08-03T01:14:03.856Z,24.40
2022-08-03T01:15:58.578Z,24.39
2022-08-03T01:17:36.751Z,24.41
2022-08-03T01:19:31.802Z,24.39
2022-08-03T01:21:10.535Z,24.36
2022-08-03T01:23:00.664Z,24.34
2022-08-03T01:24:41.447Z,24.34
2022-08-03T01:26:37.887Z,24.36
2022-08-03T01:28:28.346Z,24.33
2022-08-03T01:30:04.513Z,24.34
2022-08-03T01:33:00.127Z,24.36
2022-08-03T01:33:37.095Z,24.37
2022-08-03T01:35:12.635Z,24.37
2022-08-03T01:36:51.216Z,24.35
2022-08-03T01:38:26.091Z,24.34
2022-08-03T01:39:59.652Z,24.35
2022-08-03T01:41:34.167Z,24.31
2022-08-03T01:43:08.445Z,24.30
2022-08-03T01:44:42.649Z,24.29
2022-08-03T01:46:17.488Z,24.28
2022-08-03T01:47:50.295Z,24.28
2022-08-03T01:49:22.591Z,24.23
2022-08-03T01:50:56.774Z,24.17
2022-08-03T01:52:30.565Z,24.17
2022-08-03T01:54:04.580Z,24.18
2022-08-03T01:55:38.861Z,24.18
2022-08-03T01:57:11.094Z,24.19
2022-08-03T01:58:45.496Z,24.17
2022-08-03T02:00:19.186Z,24.17
2022-08-03T02:02:15.640Z,24.17
2022-08-03T02:04:00.050Z,24.17
2022-08-03T02:05:34.055Z,24.19
2022-08-03T02:07:06.936Z,24.18
2022-08-03T02:08:40.575Z,24.18
2022-08-03T02:10:16.062Z,24.20
2022-08-03T02:11:56.609Z,24.21
2022-08-03T02:13:30.511Z,24.18
2022-08-03T02:15:03.080Z,24.18
2022-08-03T02:16:36.265Z,24.18
2022-08-03T02:18:11.312Z,24.17
2022-08-03T02:19:44.638Z,24.12
2022-08-03T02:21:55.764Z,24.08
2022-08-03T02:23:08.757Z,24.03
2022-08-03T02:24:41.022Z,24.03
2022-08-03T02:26:17.372Z,24.05
2022-08-03T02:27:53.038Z,24.02
2022-08-03T02:29:40.243Z,24.01
2022-08-03T02:31:15.693Z,23.98
2022-08-03T02:32:53.236Z,23.93
2022-08-03T02:34:29.547Z,23.90
2022-08-03T02:36:03.123Z,23.90
2022-08-03T02:37:42.668Z,23.90
2022-08-03T02:39:20.670Z,23.91
2022-08-03T02:40:56.216Z,23.93
2022-08-03T02:42:29.850Z,23.91
2022-08-03T02:44:07.570Z,23.90
2022-08-03T02:45:45.613Z,23.90
2022-08-03T02:47:21.338Z,23.86
2022-08-03T02:48:55.756Z,23.82
2022-08-03T02:50:31.126Z,23.76
2022-08-03T02:52:04.691Z,23.71
2022-08-03T02:53:37.202Z,23.67
2022-08-03T02:55:11.807Z,23.62
2022-08-03T02:56:45.330Z,23.59
2022-08-03T02:58:21.195Z,23.55
2022-08-03T02:59:54.153Z,23.51
2022-08-03T03:01:27.859Z,23.51
2022-08-03T03:03:01.691Z,23.52
2022-08-03T03:04:36.244Z,23.53
2022-08-03T03:06:11.257Z,23.53
2022-08-03T03:07:51.351Z,23.51
2022-08-03T03:09:25.025Z,23.50
2022-08-03T03:11:15.071Z,23.50
2022-08-03T03:12:48.221Z,23.48
2022-08-03T03:14:33.190Z,23.46
2022-08-03T03:16:06.676Z,23.41
2022-08-03T03:17:39.324Z,23.39
2022-08-03T03:19:13.059Z,23.34
2022-08-03T03:20:45.837Z,23.35
2022-08-03T03:22:20.090Z,23.35
2022-08-03T03:23:52.829Z,23.34
2022-08-03T03:25:24.823Z,23.35
2022-08-03T03:26:57.676Z,23.33
2022-08-03T03:28:30.823Z,23.35
2022-08-03T03:30:02.933Z,23.36
2022-08-03T03:31:35.420Z,23.35
2022-08-03T03:33:07.602Z,23.33
2022-08-03T03:34:39.665Z,23.33
2022-08-03T03:36:11.437Z,23.29
2022-08-03T03:37:44.574Z,23.27
2022-08-03T03:39:16.301Z,23.25
2022-08-03T03:40:48.569Z,23.26
2022-08-03T03:42:20.590Z,23.26
2022-08-03T03:43:52.341Z,23.26
2022-08-03T03:45:24.498Z,23.25
2022-08-03T03:46:57.736Z,23.22
2022-08-03T03:48:29.559Z,23.21
2022-08-03T03:50:05.579Z,23.19
2022-08-03T03:51:37.406Z,23.20
2022-08-03T03:53:11.948Z,23.19
2022-08-03T03:54:45.106Z,23.18
2022-08-03T03:56:18.137Z,23.17
2022-08-03T03:57:49.823Z,23.16
2022-08-03T03:59:21.497Z,23.15
2022-08-03T04:00:53.879Z,23.14
2022-08-03T04:02:25.742Z,23.15
2022-08-03T04:03:57.568Z,23.14
2022-08-03T04:05:48.087Z,23.15
2022-08-03T04:07:38.830Z,23.12
2022-08-03T04:09:30.896Z,23.11
2022-08-03T04:11:11.455Z,23.09
2022-08-03T04:12:50.042Z,23.05
2022-08-03T04:14:27.032Z,23.01
2022-08-03T04:15:59.907Z,22.98
2022-08-03T04:17:32.718Z,22.96
2022-08-03T04:19:08.866Z,22.94
2022-08-03T04:20:45.519Z,22.90
2022-08-03T04:22:23.465Z,22.88
2022-08-03T04:23:58.964Z,22.85
2022-08-03T04:25:37.026Z,22.83
2022-08-03T04:27:13.050Z,22.81
2022-08-03T04:28:46.509Z,22.78
2022-08-03T04:30:19.212Z,22.78
2022-08-03T04:31:54.388Z,22.79
2022-08-03T04:33:29.549Z,22.80
2022-08-03T04:35:01.585Z,22.79
2022-08-03T04:36:38.248Z,22.81
2022-08-03T04:38:14.341Z,22.81
2022-08-03T04:39:49.212Z,22.83
2022-08-03T04:41:25.631Z,22.83
2022-08-03T04:42:59.457Z,22.82
2022-08-03T04:44:35.694Z,22.83
2022-08-03T04:46:09.131Z,22.84
2022-08-03T04:47:42.243Z,22.84
2022-08-03T04:49:14.304Z,22.85
2022-08-03T04:50:47.548Z,22.85
2022-08-03T04:52:19.365Z,22.85
2022-08-03T04:53:51.122Z,22.86
2022-08-03T04:55:26.901Z,22.85
2022-08-03T04:56:59.958Z,22.85
2022-08-03T04:58:31.640Z,22.85
2022-08-03T05:00:05.656Z,22.85
2022-08-03T05:01:37.953Z,22.86
2022-08-03T05:03:20.105Z,22.86
2022-08-03T05:04:56.254Z,22.89
2022-08-03T05:06:28.025Z,22.92
2022-08-03T05:08:00.739Z,22.93
2022-08-03T05:09:52.669Z,22.95
2022-08-03T05:11:24.885Z,22.96
2022-08-03T05:12:57.939Z,22.97
2022-08-03T05:14:29.622Z,22.98
2022-08-03T05:16:02.041Z,22.99
2022-08-03T05:17:34.136Z,22.99
2022-08-03T05:19:05.956Z,23.01
2022-08-03T05:20:38.806Z,23.03
2022-08-03T05:22:10.565Z,23.04
2022-08-03T05:23:42.475Z,23.06
2022-08-03T05:25:17.334Z,23.06
2022-08-03T05:26:52.464Z,23.05
2022-08-03T05:28:25.576Z,23.07
2022-08-03T05:30:29.651Z,23.08
2022-08-03T05:31:49.126Z,23.12
2022-08-03T05:33:20.814Z,23.14
2022-08-03T05:34:52.617Z,23.15
2022-08-03T05:36:24.378Z,23.15
2022-08-03T05:37:56.139Z,23.17
2022-08-03T05:39:27.882Z,23.20
2022-08-03T05:41:20.228Z,23.20
2022-08-03T05:42:51.385Z,23.20
2022-08-03T05:44:25.536Z,23.22
2022-08-03T05:46:12.953Z,23.23
2022-08-03T05:47:45.685Z,23.24
2022-08-03T05:49:17.443Z,23.26
2022-08-03T05:50:49.238Z,23.28
2022-08-03T05:52:20.958Z,23.32
2022-08-03T05:53:53.073Z,23.37
2022-08-03T05:55:25.414Z,23.38
2022-08-03T05:56:57.269Z,23.40
2022-08-03T05:58:29.902Z,23.44
2022-08-03T06:00:05.906Z,23.48
2022-08-03T06:01:43.298Z,23.54
2022-08-03T06:03:15.072Z,23.60
2022-08-03T06:04:46.987Z,23.63
2022-08-03T06:06:19.120Z,23.66
2022-08-03T06:07:50.812Z,23.71
2022-08-03T06:09:22.490Z,23.75
2022-08-03T06:11:03.716Z,23.81
2022-08-03T06:12:36.203Z,23.84
2022-08-03T06:14:08.181Z,23.86
2022-08-03T06:15:41.881Z,23.92
2022-08-03T06:17:13.603Z,23.96
2022-08-03T06:18:46.983Z,23.99
2022-08-03T06:20:19.963Z,24.03
2022-08-03T06:21:51.685Z,24.10
2022-08-03T06:23:25.353Z,24.15
2022-08-03T06:25:15.106Z,24.23
2022-08-03T06:26:46.818Z,24.29
2022-08-03T06:28:51.343Z,24.36
2022-08-03T06:30:12.400Z,24.39
2022-08-03T06:31:45.461Z,24.43
2022-08-03T06:33:17.328Z,24.48
2022-08-03T06:34:49.107Z,24.55
2022-08-03T06:36:20.881Z,24.59
2022-08-03T06:37:52.651Z,24.63
2022-08-03T06:39:24.372Z,24.66
2022-08-03T06:40:56.670Z,24.69
2022-08-03T06:42:28.358Z,24.80
2022-08-03T06:44:03.984Z,24.89
2022-08-03T06:45:36.353Z,25.01
2022-08-03T06:47:09.663Z,25.09
2022-08-03T06:48:41.393Z,25.16
2022-08-03T06:50:17.822Z,25.23
2022-08-03T06:52:05.741Z,25.27
2022-08-03T06:53:38.629Z,25.31
2022-08-03T06:55:10.330Z,25.33
2022-08-03T06:56:42.171Z,25.38
2022-08-03T06:58:13.873Z,25.45
2022-08-03T07:00:06.389Z,25.54
2022-08-03T07:01:37.340Z,25.64
2022-08-03T07:03:10.434Z,25.75
2022-08-03T07:04:42.185Z,25.82
2022-08-03T07:06:13.954Z,25.91
2022-08-03T07:07:46.074Z,26.00
2022-08-03T07:09:17.835Z,26.06
2022-08-03T07:10:49.632Z,26.11
2022-08-03T07:12:21.337Z,26.22
2022-08-03T07:13:53.113Z,26.28
2022-08-03T07:15:54.095Z,26.34
2022-08-03T07:17:16.857Z,26.42
2022-08-03T07:18:49.913Z,26.47
2022-08-03T07:20:21.639Z,26.55
2022-08-03T07:21:53.567Z,26.62
2022-08-03T07:23:25.618Z,26.72
2022-08-03T07:24:57.487Z,26.84
2022-08-03T07:26:29.169Z,26.83
2022-08-03T07:28:00.885Z,26.79
2022-08-03T07:29:34.646Z,26.76
2022-08-03T07:31:06.498Z,26.75
2022-08-03T07:32:49.730Z,26.69
2022-08-03T07:34:23.613Z,26.67
2022-08-03T07:35:55.287Z,26.64
2022-08-03T07:37:27.018Z,26.61
2022-08-03T07:38:58.739Z,26.59
2022-08-03T07:40:32.006Z,26.59
2022-08-03T07:42:04.313Z,26.66
2022-08-03T07:43:36.021Z,26.77
2022-08-03T07:45:09.386Z,26.82
2022-08-03T07:46:48.623Z,26.87
2022-08-03T07:48:20.478Z,26.93
2022-08-03T07:49:53.688Z,27.01
2022-08-03T07:51:25.539Z,27.12
2022-08-03T07:52:58.075Z,27.19
2022-08-03T07:54:29.795Z,27.27
2022-08-03T07:56:01.619Z,27.34
2022-08-03T07:57:37.757Z,27.41
2022-08-03T07:59:09.654Z,27.45
2022-08-03T08:00:42.262Z,27.48
2022-08-03T08:02:14.907Z,27.54
2022-08-03T08:03:53.238Z,27.60
2022-08-03T08:05:27.933Z,27.70
2022-08-03T08:06:59.660Z,27.80
2022-08-03T08:08:31.573Z,27.89
2022-08-03T08:10:04.584Z,27.98
2022-08-03T08:11:39.988Z,28.03
2022-08-03T08:13:11.951Z,28.12
2022-08-03T08:14:46.602Z,28.18
2022-08-03T08:16:18.305Z,28.21
2022-08-03T08:17:51.975Z,28.27
2022-08-03T08:19:23.714Z,28.31
2022-08-03T08:21:01.624Z,28.35
2022-08-03T08:22:33.388Z,28.39
2022-08-03T08:24:10.941Z,28.47
2022-08-03T08:25:50.755Z,28.51
2022-08-03T08:27:22.444Z,28.51
2022-08-03T08:28:54.148Z,28.57
2022-08-03T08:30:26.409Z,28.62
2022-08-03T08:32:00.955Z,28.66
2022-08-03T08:34:01.451Z,28.70
2022-08-03T08:35:26.515Z,28.78
2022-08-03T08:36:59.634Z,28.86
2022-08-03T08:38:31.352Z,28.90
2022-08-03T08:40:04.017Z,29.00
2022-08-03T08:41:35.813Z,29.08
2022-08-03T08:43:07.699Z,29.22
2022-08-03T08:44:39.627Z,29.33
2022-08-03T08:46:23.395Z,29.45
2022-08-03T08:48:03.442Z,29.56
2022-08-03T08:49:40.259Z,29.62
2022-08-03T08:51:13.467Z,29.69
2022-08-03T08:52:48.891Z,29.73
2022-08-03T08:54:22.426Z,29.69
2022-08-03T08:55:58.840Z,29.70
2022-08-03T08:57:42.686Z,29.70
2022-08-03T08:59:15.186Z,29.73
2022-08-03T09:00:48.386Z,29.75
2022-08-03T09:02:20.492Z,29.81
2022-08-03T09:03:54.050Z,29.88
2022-08-03T09:05:54.659Z,29.92
2022-08-03T09:07:29.181Z,29.89
2022-08-03T09:09:02.600Z,29.90
2022-08-03T09:10:34.798Z,29.93
2022-08-03T09:12:35.423Z,29.97
2022-08-03T09:14:00.074Z,30.07
2022-08-03T09:15:33.252Z,30.05
2022-08-03T09:17:05.164Z,30.07
2022-08-03T09:18:36.929Z,30.10
2022-08-03T09:20:09.872Z,30.15
2022-08-03T09:21:41.760Z,30.20
2022-08-03T09:23:59.616Z,30.26
2022-08-03T09:25:23.726Z,30.30
2022-08-03T09:26:56.219Z,30.34
2022-08-03T09:28:57.226Z,30.38
2022-08-03T09:30:34.473Z,30.44
2022-08-03T09:32:07.105Z,30.49
2022-08-03T09:33:47.809Z,30.55
2022-08-03T09:35:51.588Z,30.61
2022-08-03T09:37:19.843Z,30.56
2022-08-03T09:39:04.415Z,30.61
2022-08-03T09:40:37.729Z,30.63
2022-08-03T09:42:10.863Z,30.60
2022-08-03T09:43:47.161Z,30.59
2022-08-03T09:45:26.810Z,30.48
2022-08-03T09:46:58.582Z,30.54
2022-08-03T09:48:31.972Z,30.58
2022-08-03T09:50:05.889Z,30.66
2022-08-03T09:52:37.818Z,30.66
2022-08-03T09:53:30.031Z,30.64
2022-08-03T09:55:02.883Z,30.71
2022-08-03T09:56:41.538Z,30.75
2022-08-03T09:58:14.289Z,30.74
2022-08-03T09:59:46.106Z,30.77
2022-08-03T10:01:24.036Z,30.82
2022-08-03T10:03:04.664Z,30.74
2022-08-03T10:04:47.384Z,30.78
2022-08-03T10:06:20.302Z,30.84
2022-08-03T10:07:52.363Z,30.85
2022-08-03T10:09:24.069Z,30.80
2022-08-03T10:10:57.867Z,30.82
2022-08-03T10:12:31.319Z,30.89
2022-08-03T10:14:04.900Z,30.96
2022-08-03T10:16:23.606Z,30.96
2022-08-03T10:17:28.484Z,30.92
2022-08-03T10:19:00.299Z,30.89
2022-08-03T10:20:36.479Z,30.88
2022-08-03T10:22:12.258Z,30.88
2022-08-03T10:23:44.312Z,30.93
2022-08-03T10:25:17.285Z,30.98
2022-08-03T10:26:50.716Z,31.01
2022-08-03T10:28:24.938Z,30.85
2022-08-03T10:30:02.902Z,30.83
2022-08-03T10:31:39.692Z,30.89
2022-08-03T10:33:51.013Z,30.90
2022-08-03T10:35:21.858Z,30.89
2022-08-03T10:36:57.156Z,30.77
2022-08-03T10:38:32.817Z,30.68
2022-08-03T10:40:08.346Z,30.64
2022-08-03T10:41:42.560Z,30.81
2022-08-03T10:43:19.887Z,30.91
2022-08-03T10:45:03.749Z,30.97
2022-08-03T10:46:44.157Z,31.02
2022-08-03T10:48:17.962Z,31.13
2022-08-03T10:49:50.440Z,31.12
2022-08-03T10:51:23.148Z,31.20
2022-08-03T10:52:56.396Z,31.12
2022-08-03T10:54:58.207Z,31.14
2022-08-03T10:56:58.509Z,31.22
2022-08-03T10:58:57.105Z,31.09
2022-08-03T11:00:49.843Z,31.08
2022-08-03T11:02:22.353Z,31.17
2022-08-03T11:04:17.190Z,31.11
2022-08-03T11:05:49.517Z,31.18
2022-08-03T11:07:23.522Z,31.22
2022-08-03T11:09:17.216Z,31.28
2022-08-03T11:10:49.890Z,31.38
2022-08-03T11:12:28.480Z,31.43
2022-08-03T11:14:07.563Z,31.48
2022-08-03T11:15:43.478Z,31.49
2022-08-03T11:17:15.392Z,31.53
2022-08-03T11:18:56.314Z,31.57
2022-08-03T11:20:46.833Z,31.49
2022-08-03T11:22:20.257Z,31.52
2022-08-03T11:24:04.285Z,31.57
2022-08-03T11:26:25.721Z,31.61
2022-08-03T11:28:28.595Z,31.56
2022-08-03T11:30:04.680Z,31.54
2022-08-03T11:31:50.255Z,31.59
2022-08-03T11:33:32.051Z,31.66
2022-08-03T11:35:08.584Z,31.70
2022-08-03T11:37:17.928Z,31.69
2022-08-03T11:39:13.553Z,31.60
2022-08-03T11:40:50.553Z,31.47
2022-08-03T11:42:43.910Z,31.42
2022-08-03T11:44:39.932Z,31.45
2022-08-03T11:46:29.564Z,31.52
2022-08-03T11:48:15.729Z,31.58
2022-08-03T11:49:48.458Z,31.66
2022-08-03T11:51:22.706Z,31.71
2022-08-03T11:52:54.872Z,31.77
2022-08-03T11:54:26.634Z,31.77
2022-08-03T11:55:59.833Z,31.80
2022-08-03T11:59:16.850Z,31.85
2022-08-03T11:59:32.465Z,31.92
2022-08-03T12:01:05.174Z,31.93
2022-08-03T12:02:36.899Z,31.98
2022-08-03T12:04:11.672Z,32.01
2022-08-03T12:05:51.842Z,32.07
2022-08-03T12:08:03.554Z,32.10
2022-08-03T12:09:17.049Z,32.10
2022-08-03T12:10:53.862Z,32.13
2022-08-03T12:12:25.598Z,32.15
2022-08-03T12:14:48.789Z,32.19
2022-08-03T12:15:53.953Z,32.27
2022-08-03T12:17:33.247Z,32.34
2022-08-03T12:19:06.810Z,32.38
2022-08-03T12:20:41.300Z,32.41
2022-08-03T12:22:13.656Z,32.48
2022-08-03T12:23:45.395Z,32.55
2022-08-03T12:25:39.539Z,32.59
2022-08-03T12:27:11.749Z,32.64
2022-08-03T12:28:49.849Z,32.70
2022-08-03T12:30:23.607Z,32.54
2022-08-03T12:31:56.049Z,32.56
2022-08-03T12:33:28.724Z,32.59
2022-08-03T12:35:04.989Z,32.61
2022-08-03T12:36:39.074Z,32.66
2022-08-03T12:38:12.334Z,32.73
2022-08-03T12:40:02.543Z,32.80
2022-08-03T12:41:40.733Z,33.02
2022-08-03T12:43:13.221Z,33.28
2022-08-03T12:44:46.225Z,33.55
2022-08-03T12:46:19.616Z,33.83
2022-08-03T12:47:55.533Z,34.07
2022-08-03T12:49:28.229Z,34.26
2022-08-03T12:51:08.864Z,34.53
2022-08-03T12:52:45.508Z,34.80
2022-08-03T12:54:24.813Z,35.04
2022-08-03T12:56:05.182Z,35.20
2022-08-03T12:57:41.311Z,35.33
2022-08-03T12:59:32.227Z,35.48
2022-08-03T13:01:09.480Z,35.67
2022-08-03T13:02:46.490Z,35.78
2022-08-03T13:04:26.459Z,35.84
2022-08-03T13:06:01.018Z,35.94
2022-08-03T13:07:41.797Z,36.06
2022-08-03T13:09:19.057Z,36.17
2022-08-03T13:10:51.568Z,36.30
2022-08-03T13:12:25.189Z,36.47
2022-08-03T13:13:56.961Z,36.62
2022-08-03T13:15:29.806Z,36.77
2022-08-03T13:17:10.975Z,36.77
2022-08-03T13:18:42.857Z,36.32
2022-08-03T13:20:14.551Z,36.16
2022-08-03T13:21:53.495Z,35.99
2022-08-03T13:23:35.575Z,35.97
2022-08-03T13:25:09.360Z,35.98
2022-08-03T13:26:41.082Z,36.19
2022-08-03T13:28:14.438Z,36.45
2022-08-03T13:29:46.498Z,36.63
2022-08-03T13:31:18.208Z,36.95
2022-08-03T13:32:51.631Z,37.23
2022-08-03T13:34:24.136Z,37.49
2022-08-03T13:35:56.229Z,37.50
2022-08-03T13:37:28.170Z,37.31
2022-08-03T13:38:59.907Z,37.40
2022-08-03T13:40:41.815Z,37.48
2022-08-03T13:42:13.765Z,37.37
2022-08-03T13:43:45.470Z,37.54
2022-08-03T13:45:18.258Z,37.61
2022-08-03T13:46:50.444Z,37.80
2022-08-03T13:48:37.449Z,37.51
2022-08-03T13:50:09.598Z,37.24
2022-08-03T13:51:41.654Z,37.53
2022-08-03T13:53:13.400Z,37.85
2022-08-03T13:54:47.153Z,38.05
2022-08-03T13:56:20.478Z,38.09
2022-08-03T13:58:02.919Z,38.36
2022-08-03T13:59:38.661Z,38.61
2022-08-03T14:01:10.566Z,38.85
2022-08-03T14:02:42.518Z,39.13
2022-08-03T14:04:21.772Z,38.95
2022-08-03T14:05:54.166Z,38.60
2022-08-03T14:07:25.895Z,38.67
2022-08-03T14:09:00.548Z,38.93
2022-08-03T14:10:34.119Z,39.25
2022-08-03T14:12:08.942Z,39.51
2022-08-03T14:13:41.544Z,39.68
2022-08-03T14:15:13.410Z,39.75
2022-08-03T14:16:45.204Z,39.84
2022-08-03T14:18:27.850Z,40.04
2022-08-03T14:20:01.385Z,39.97
2022-08-03T14:21:35.122Z,39.61
2022-08-03T14:23:07.260Z,39.34
2022-08-03T14:24:38.984Z,38.79
2022-08-03T14:26:12.005Z,38.40
2022-08-03T14:27:45.175Z,38.20
2022-08-03T14:29:16.997Z,38.44
2022-08-03T14:30:49.146Z,38.64
2022-08-03T14:32:20.931Z,38.93
2022-08-03T14:33:52.775Z,39.30
2022-08-03T14:35:24.630Z,39.60
2022-08-03T14:36:56.442Z,39.86
2022-08-03T14:38:28.283Z,39.94
2022-08-03T14:40:00.787Z,40.04
2022-08-03T14:41:32.914Z,40.32
2022-08-03T14:43:06.073Z,40.37
2022-08-03T14:44:37.718Z,40.61
2022-08-03T14:46:09.631Z,40.58
2022-08-03T14:50:29.741Z,40.61
2022-08-03T14:50:34.187Z,40.95
2022-08-03T14:51:26.827Z,41.23
2022-08-03T14:53:04.905Z,41.39
2022-08-03T14:54:37.082Z,41.43
2022-08-03T14:56:10.643Z,41.33
2022-08-03T14:57:42.643Z,41.20
2022-08-03T14:59:15.763Z,41.12
2022-08-03T15:00:47.582Z,41.02
2022-08-03T15:02:23.862Z,40.98
2022-08-03T15:03:56.006Z,40.99
2022-08-03T15:05:27.700Z,41.03
2022-08-03T15:06:59.618Z,41.02
2022-08-03T15:08:31.328Z,40.76
2022-08-03T15:10:03.358Z,40.49
2022-08-03T15:11:35.454Z,40.32
2022-08-03T15:13:07.173Z,39.91
2022-08-03T15:14:40.360Z,39.42
2022-08-03T15:16:12.154Z,39.03
2022-08-03T15:17:59.711Z,38.89
2022-08-03T15:20:01.595Z,38.77
2022-08-03T15:21:46.124Z,38.32
2022-08-03T15:23:16.820Z,37.89
2022-08-03T15:24:48.645Z,37.94
2022-08-03T15:26:30.331Z,37.96
2022-08-03T15:28:05.854Z,38.00
2022-08-03T15:30:04.967Z,37.96
2022-08-03T15:31:31.031Z,38.00
2022-08-03T15:33:02.821Z,37.92
2022-08-03T15:34:34.504Z,38.12
2022-08-03T15:36:06.588Z,38.14
2022-08-03T15:37:38.302Z,38.26
2022-08-03T15:39:10.043Z,38.29
2022-08-03T15:40:41.964Z,38.12
2022-08-03T15:42:13.686Z,38.05
2022-08-03T15:43:47.601Z,38.06
2022-08-03T15:45:20.341Z,38.05
2022-08-03T15:46:53.852Z,38.28
2022-08-03T15:48:26.603Z,38.62
2022-08-03T15:49:58.452Z,38.73
2022-08-03T15:51:30.349Z,38.88
2022-08-03T15:53:02.118Z,38.84
2022-08-03T15:54:33.823Z,38.86
2022-08-03T15:56:13.246Z,39.15
2022-08-03T15:59:11.278Z,39.49
2022-08-03T15:59:40.398Z,39.62
2022-08-03T16:01:16.407Z,39.68
2022-08-03T16:02:55.763Z,39.71
2022-08-03T16:04:28.647Z,39.60
2022-08-03T16:06:01.448Z,39.09
2022-08-03T16:08:03.250Z,38.74
2022-08-03T16:09:42.898Z,38.34
2022-08-03T16:11:16.122Z,38.19
2022-08-03T16:12:48.543Z,38.23
2022-08-03T16:14:33.357Z,38.16
2022-08-03T16:16:07.502Z,38.07
2022-08-03T16:17:40.041Z,37.89
2022-08-03T16:19:13.061Z,37.73
2022-08-03T16:20:45.162Z,37.74
2022-08-03T16:22:22.176Z,37.71
2022-08-03T16:23:54.817Z,37.63
2022-08-03T16:25:27.877Z,37.58
2022-08-03T16:27:00.494Z,37.57
2022-08-03T16:28:34.085Z,37.55
2022-08-03T16:30:07.837Z,37.48
2022-08-03T16:31:39.738Z,37.36
2022-08-03T16:33:23.089Z,37.19
2022-08-03T16:34:56.192Z,37.11
2022-08-03T16:36:27.902Z,37.09
2022-08-03T16:38:10.416Z,36.90
2022-08-03T16:39:43.303Z,36.66
2022-08-03T16:41:15.028Z,36.48
2022-08-03T16:42:47.180Z,36.42
2022-08-03T16:44:19.350Z,36.38
2022-08-03T16:45:51.281Z,36.37
2022-08-03T16:47:23.165Z,36.41
2022-08-03T16:48:54.969Z,36.32
2022-08-03T16:50:28.215Z,36.32
2022-08-03T16:51:59.947Z,36.26
2022-08-03T16:53:33.629Z,36.16
2022-08-03T16:55:48.952Z,35.97
2022-08-03T16:57:16.442Z,35.97
2022-08-03T16:59:08.056Z,36.01
2022-08-03T17:00:41.581Z,36.00
2022-08-03T17:02:21.691Z,35.99
2022-08-03T17:04:03.144Z,36.03
2022-08-03T17:05:47.287Z,35.98
2022-08-03T17:07:20.699Z,36.04
2022-08-03T17:08:55.409Z,36.08
2022-08-03T17:10:29.949Z,36.04
2022-08-03T17:12:01.691Z,35.88
2022-08-03T17:13:39.732Z,35.69
2022-08-03T17:15:12.053Z,35.54
2022-08-03T17:16:52.899Z,35.39
2022-08-03T17:18:26.767Z,35.19
2022-08-03T17:19:59.898Z,35.16
2022-08-03T17:21:37.536Z,35.21
2022-08-03T17:23:34.325Z,35.27
2022-08-03T17:25:07.661Z,35.23
2022-08-03T17:26:43.557Z,35.19
2022-08-03T17:28:49.758Z,35.18
2022-08-03T17:30:12.189Z,35.14
2022-08-03T17:31:49.045Z,35.10
2022-08-03T17:33:21.486Z,35.14
2022-08-03T17:34:55.321Z,35.12
2022-08-03T17:37:01.691Z,35.08
2022-08-03T17:38:23.064Z,34.93
2022-08-03T17:39:59.045Z,34.86
2022-08-03T17:41:37.841Z,34.82
2022-08-03T17:44:13.285Z,34.81
2022-08-03T17:45:15.839Z,34.78
2022-08-03T17:46:47.880Z,34.71
2022-08-03T17:48:20.737Z,34.60
2022-08-03T17:49:56.981Z,34.59
2022-08-03T17:51:33.315Z,34.65
2022-08-03T17:53:15.451Z,34.64
2022-08-03T17:55:57.227Z,34.63
2022-08-03T17:57:06.319Z,34.67
2022-08-03T17:59:01.532Z,34.57
2022-08-03T18:01:01.849Z,34.55
2022-08-03T18:03:03.253Z,34.52
2022-08-03T18:04:41.748Z,34.53
2022-08-03T18:06:13.521Z,34.47
2022-08-03T18:08:02.577Z,34.39
2022-08-03T18:10:03.451Z,34.32
2022-08-03T18:11:37.095Z,34.25
2022-08-03T18:13:15.157Z,34.23
2022-08-03T18:14:57.521Z,34.19
2022-08-03T18:16:38.093Z,34.10
2022-08-03T18:18:12.569Z,34.01
2022-08-03T18:20:01.967Z,33.93
2022-08-03T18:22:03.515Z,33.87
2022-08-03T18:23:36.826Z,33.82
2022-08-03T18:25:10.539Z,33.79
2022-08-03T18:26:49.154Z,33.77
2022-08-03T18:28:23.207Z,33.74
2022-08-03T18:29:56.999Z,33.72
2022-08-03T18:32:00.503Z,33.72
2022-08-03T18:34:19.599Z,33.74
2022-08-03T18:35:16.052Z,33.72
2022-08-03T18:36:48.916Z,33.71
2022-08-03T18:38:21.856Z,33.68
2022-08-03T18:39:57.888Z,33.63
2022-08-03T18:41:33.746Z,33.50
2022-08-03T18:43:08.029Z,33.49
2022-08-03T18:44:53.141Z,33.49
2022-08-03T18:46:37.006Z,33.35
2022-08-03T18:48:22.914Z,33.28
2022-08-03T18:50:08.664Z,33.27
2022-08-03T18:51:47.011Z,33.28
2022-08-03T18:54:02.143Z,33.30
2022-08-03T18:55:33.522Z,33.25
2022-08-03T18:57:12.751Z,33.18
2022-08-03T18:59:02.251Z,33.11
2022-08-03T19:00:54.317Z,33.09
2022-08-03T19:02:34.624Z,33.08
2022-08-03T19:04:13.080Z,33.08
2022-08-03T19:06:02.817Z,33.07
2022-08-03T19:07:46.424Z,33.04
2022-08-03T19:09:37.329Z,33.03
2022-08-03T19:11:21.640Z,32.97
2022-08-03T19:13:04.513Z,32.93
2022-08-03T19:14:42.438Z,32.90
2022-08-03T19:16:20.413Z,32.88
2022-08-03T19:17:53.256Z,32.84
2022-08-03T19:19:27.148Z,32.82
2022-08-03T19:21:17.387Z,32.79
2022-08-03T19:22:51.156Z,32.76
2022-08-03T19:24:26.206Z,32.73
2022-08-03T19:26:00.364Z,32.67
2022-08-03T19:27:33.067Z,32.61
2022-08-03T19:29:10.728Z,32.58
2022-08-03T19:30:53.687Z,32.55
2022-08-03T19:32:28.817Z,32.49
2022-08-03T19:34:02.419Z,32.45
2022-08-03T19:35:51.338Z,32.40
2022-08-03T19:37:38.363Z,32.37
2022-08-03T19:39:14.111Z,32.36
2022-08-03T19:40:51.487Z,32.34
2022-08-03T19:42:29.784Z,32.30
2022-08-03T19:44:04.843Z,32.24
2022-08-03T19:46:04.881Z,32.18
2022-08-03T19:47:38.993Z,32.14
2022-08-03T19:49:15.469Z,32.09
2022-08-03T19:50:48.471Z,32.06
2022-08-03T19:52:24.467Z,32.04
2022-08-03T19:54:04.806Z,32.00
2022-08-03T19:55:38.711Z,31.99
2022-08-03T19:57:23.379Z,31.98
2022-08-03T19:58:57.397Z,31.97
2022-08-03T20:00:32.693Z,31.95
2022-08-03T20:02:10.102Z,31.91
2022-08-03T20:03:59.313Z,31.88
2022-08-03T20:05:45.089Z,31.85
2022-08-03T20:07:25.050Z,31.82
2022-08-03T20:08:57.690Z,31.78
2022-08-03T20:10:32.174Z,31.78
2022-08-03T20:12:04.552Z,31.76
2022-08-03T20:13:39.145Z,31.71
2022-08-03T20:15:11.501Z,31.65
2022-08-03T20:16:43.264Z,31.57
2022-08-03T20:18:16.619Z,31.50
2022-08-03T20:19:52.593Z,31.48
2022-08-03T20:21:27.231Z,31.42
2022-08-03T20:23:00.973Z,31.38
2022-08-03T20:24:34.466Z,31.37
2022-08-03T20:26:09.394Z,31.35
2022-08-03T20:28:07.901Z,31.35
2022-08-03T20:30:05.482Z,31.32
2022-08-03T20:31:36.467Z,31.28
2022-08-03T20:33:08.533Z,31.25
2022-08-03T20:34:40.727Z,31.20
2022-08-03T20:36:17.690Z,31.17
2022-08-03T20:37:49.944Z,31.13
2022-08-03T20:39:21.748Z,31.11
2022-08-03T20:40:53.595Z,31.08
2022-08-03T20:42:25.320Z,31.04
2022-08-03T20:43:57.381Z,31.01
2022-08-03T20:46:00.432Z,30.97
2022-08-03T20:47:23.801Z,30.94